07CL weather

Richvale Airport
Richvale, California, United States

Public forecast

Using degrees Fahrenheit for public forecast. Weather courtesy of forecast.io.

Closest aviation weather report (METAR) to Richvale Airport

Closest report is Oroville Municipal Airport, 6.9 nm (12.8 km) E. Retrieved 2019/10/23 12:53 UTC (1 hour ago):

KOVE 231253Z AUTO VRB03KT 10SM CLR 18/07 A3002 RMK AO2 SLP168 T01780072

Closest aviation forecast (TAF) to Richvale Airport

Closest forecast is Beale Air Force Base, 26.7 nm (49.4 km) SE. Retrieved 2019/10/23 11:06 UTC (3 hours ago):

TAF KBAB 231103Z 2311/2417 VRB06KT 9999 SKC QNH3000INS BECMG 2317/2318 34009KT 9999 SKC QNH2991INS TEMPO 2320/2324 34012G18KT BECMG 2405/2406 VRB06KT 9999 SKC QNH2997INS TX31/2322Z TN09/2312Z